Algodones, NM

3:42 AM MDT on July 31, 2015 (GMT -0600)
On The Loop | | Change Station
CLOSE
Current Station
Personal Weather Station
Location: Placitas, NM
Elevation: 5260 ft
Nearby Weather Stations

Elev 5260 ft 35.34 °N, 106.50 °W | Updated 9 minutes ago

Overcast
Overcast
67.1 °F
Feels Like 67.1 °F
N
0.0
Wind Variable Wind from East
Gusts 0.0 mph

Today
High -- | Low -- °F
--% Chance of Precip.
Yesterday
High -- | Low -- °F
Precip. -- in
6:13 AM 8:10 PM
Full, 100% visible
Pressure 30.37 in
Visibility 10.0 miles
Clouds Scattered Clouds 9500 ft
Mostly Cloudy 12000 ft
Dew Point 58 °F
Humidity 74%
Rainfall 0.00 in
Snow Depth Not available.
UV 0.0 out of 12
Pollen .50 out of 12
Air Quality Not available.
Flu Activity Not available.
METAR KAEG 310935Z AUTO 01006KT 10SM SCT095 BKN120 17/16 A3037 RMK AO2 LTG DSNT E T01700155

More Conditions Fewer Conditions

Pressure 30.37 in
Visibility 10.0 miles
Clouds Scattered Clouds 9500 ft
Mostly Cloudy 12000 ft
Dew Point 58 °F
Humidity 74%
Rainfall 0.00 in
Snow Depth Not available.
UV 0.0 out of 12
Pollen .50 out of 12
Air Quality Not available.
Flu Activity Not available.
METAR KAEG 310935Z AUTO 01006KT 10SM SCT095 BKN120 17/16 A3037 RMK AO2 LTG DSNT E T01700155

More Conditions Fewer Conditions

10-Day Weather Forecast

×

Almanac

Astronomy

Jul. 31, 2015 Rise Set
Actual Time
Civil Twilight
Nautical Twilight
Astronomical Twilight
Moon
Length of Visible Light
Length of Day
Tomorrow will be .
, % of the Moon is Illuminated

Today's Extremes

State Highs State Lows

Community

WunderPhotos

Upload Photos

1,842,639 photos uploaded!

WunderBlogs® & News

Nearby

Air Quality

  Air Quality AQ Index Pollutant
Not available.

Snow Depth

Station Depth Elevation

Earthquake Activity

City Distance Mag. Time & Date
Minimum magnitude displayed is 2.5.

Coastal Water Temperatures

Place Temperature

Stations

Nearby Weather Stations

Station Location Temp. Windchill Dew Point Humidity Wind Precip. Elev Updated Type